sensor_id;sensor_type;location;lat;lon;timestamp;pressure;altitude;pressure_sealevel;temperature;humidity
73240;BME280;61452;40.054;4.110;2023-04-03T00:01:52;101853.34;;;17.16;57.37
73240;BME280;61452;40.054;4.110;2023-04-03T00:06:55;101853.44;;;17.15;58.11
73240;BME280;61452;40.054;4.110;2023-04-03T00:11:57;101859.97;;;17.09;58.30
73240;BME280;61452;40.054;4.110;2023-04-03T00:16:59;101847.72;;;17.07;57.19
73240;BME280;61452;40.054;4.110;2023-04-03T00:22:01;101853.97;;;17.06;57.43
73240;BME280;61452;40.054;4.110;2023-04-03T00:27:04;101837.72;;;17.12;56.73
73240;BME280;61452;40.054;4.110;2023-04-03T00:32:06;101826.16;;;17.13;56.72
73240;BME280;61452;40.054;4.110;2023-04-03T00:37:08;101821.13;;;17.08;57.40
73240;BME280;61452;40.054;4.110;2023-04-03T00:42:11;101810.78;;;17.04;57.88
73240;BME280;61452;40.054;4.110;2023-04-03T00:47:16;101797.66;;;17.02;57.46
73240;BME280;61452;40.054;4.110;2023-04-03T00:52:22;101793.94;;;17.05;57.18
73240;BME280;61452;40.054;4.110;2023-04-03T00:57:26;101790.28;;;17.07;57.15
73240;BME280;61452;40.054;4.110;2023-04-03T01:02:28;101784.97;;;17.07;57.16
73240;BME280;61452;40.054;4.110;2023-04-03T01:07:32;101774.53;;;17.04;57.34
73240;BME280;61452;40.054;4.110;2023-04-03T01:12:40;101754.19;;;17.05;57.24
73240;BME280;61452;40.054;4.110;2023-04-03T01:17:54;101757.69;;;17.05;56.91
73240;BME280;61452;40.054;4.110;2023-04-03T01:28:18;101742.84;;;17.03;56.97
73240;BME280;61452;40.054;4.110;2023-04-03T01:33:21;101730.31;;;17.05;56.81
73240;BME280;61452;40.054;4.110;2023-04-03T01:38:23;101742.56;;;17.07;56.11
73240;BME280;61452;40.054;4.110;2023-04-03T01:43:26;101720.50;;;17.07;56.20
73240;BME280;61452;40.054;4.110;2023-04-03T01:48:28;101728.38;;;17.08;56.65
73240;BME280;61452;40.054;4.110;2023-04-03T01:53:30;101711.88;;;17.03;56.43
73240;BME280;61452;40.054;4.110;2023-04-03T01:58:33;101700.31;;;17.04;56.51
73240;BME280;61452;40.054;4.110;2023-04-03T02:03:35;101683.47;;;17.05;56.67
73240;BME280;61452;40.054;4.110;2023-04-03T02:08:38;101680.66;;;17.08;56.87
73240;BME280;61452;40.054;4.110;2023-04-03T02:13:40;101673.81;;;17.04;57.06
73240;BME280;61452;40.054;4.110;2023-04-03T02:18:42;101685.25;;;17.05;55.97
73240;BME280;61452;40.054;4.110;2023-04-03T02:23:44;101693.41;;;17.02;55.95
73240;BME280;61452;40.054;4.110;2023-04-03T02:28:47;101693.97;;;17.07;55.63
73240;BME280;61452;40.054;4.110;2023-04-03T02:33:49;101697.41;;;17.09;55.78
73240;BME280;61452;40.054;4.110;2023-04-03T02:38:52;101691.34;;;17.07;55.56
73240;BME280;61452;40.054;4.110;2023-04-03T02:43:55;101688.22;;;17.00;55.67
73240;BME280;61452;40.054;4.110;2023-04-03T02:48:57;101685.75;;;16.97;55.00
73240;BME280;61452;40.054;4.110;2023-04-03T02:53:59;101668.50;;;17.04;54.88
73240;BME280;61452;40.054;4.110;2023-04-03T02:59:05;101627.91;;;17.04;55.65
73240;BME280;61452;40.054;4.110;2023-04-03T03:04:10;101650.06;;;17.03;55.43
73240;BME280;61452;40.054;4.110;2023-04-03T03:09:12;101627.44;;;16.97;55.57
73240;BME280;61452;40.054;4.110;2023-04-03T03:14:16;101645.03;;;16.98;54.89
73240;BME280;61452;40.054;4.110;2023-04-03T03:19:19;101649.09;;;17.04;55.07
73240;BME280;61452;40.054;4.110;2023-04-03T03:24:21;101648.28;;;17.03;54.94
73240;BME280;61452;40.054;4.110;2023-04-03T03:29:23;101639.56;;;17.01;55.36
73240;BME280;61452;40.054;4.110;2023-04-03T03:34:26;101647.03;;;16.94;56.19
73240;BME280;61452;40.054;4.110;2023-04-03T03:39:28;101646.25;;;16.92;55.91
73240;BME280;61452;40.054;4.110;2023-04-03T03:44:31;101663.00;;;16.93;56.00
73240;BME280;61452;40.054;4.110;2023-04-03T03:49:33;101647.03;;;16.94;55.55
73240;BME280;61452;40.054;4.110;2023-04-03T03:54:36;101664.72;;;16.94;55.30
73240;BME280;61452;40.054;4.110;2023-04-03T03:59:39;101661.78;;;16.98;55.28
73240;BME280;61452;40.054;4.110;2023-04-03T04:04:43;101669.66;;;17.00;55.18
73240;BME280;61452;40.054;4.110;2023-04-03T04:09:46;101669.75;;;16.98;55.64
73240;BME280;61452;40.054;4.110;2023-04-03T04:14:49;101659.50;;;16.92;55.93
73240;BME280;61452;40.054;4.110;2023-04-03T04:19:51;101649.97;;;16.90;56.16
73240;BME280;61452;40.054;4.110;2023-04-03T04:24:53;101654.97;;;16.94;55.67
73240;BME280;61452;40.054;4.110;2023-04-03T04:29:56;101643.34;;;16.97;55.30
73240;BME280;61452;40.054;4.110;2023-04-03T04:35:01;101649.38;;;16.99;55.24
73240;BME280;61452;40.054;4.110;2023-04-03T04:40:05;101630.34;;;16.92;55.51
73240;BME280;61452;40.054;4.110;2023-04-03T04:45:08;101640.22;;;16.90;55.28
73240;BME280;61452;40.054;4.110;2023-04-03T04:50:13;101610.00;;;16.93;54.59
73240;BME280;61452;40.054;4.110;2023-04-03T04:55:15;101625.06;;;16.92;55.54
73240;BME280;61452;40.054;4.110;2023-04-03T05:00:18;101627.84;;;16.91;54.66
73240;BME280;61452;40.054;4.110;2023-04-03T05:05:20;101645.16;;;16.96;54.01
73240;BME280;61452;40.054;4.110;2023-04-03T05:10:23;101633.56;;;16.97;54.02
73240;BME280;61452;40.054;4.110;2023-04-03T05:15:26;101653.97;;;16.97;54.42
73240;BME280;61452;40.054;4.110;2023-04-03T05:20:29;101643.63;;;16.92;54.00
73240;BME280;61452;40.054;4.110;2023-04-03T05:25:32;101643.81;;;16.89;53.63
73240;BME280;61452;40.054;4.110;2023-04-03T05:30:35;101649.69;;;16.94;53.94
73240;BME280;61452;40.054;4.110;2023-04-03T05:35:38;101654.97;;;16.94;54.68
73240;BME280;61452;40.054;4.110;2023-04-03T05:40:46;101664.72;;;16.94;55.44
73240;BME280;61452;40.054;4.110;2023-04-03T05:45:49;101676.56;;;16.88;55.40
73240;BME280;61452;40.054;4.110;2023-04-03T05:50:51;101694.16;;;16.89;55.04
73240;BME280;61452;40.054;4.110;2023-04-03T05:55:59;101694.81;;;16.93;53.85
73240;BME280;61452;40.054;4.110;2023-04-03T06:01:05;101703.72;;;16.92;54.30
73240;BME280;61452;40.054;4.110;2023-04-03T06:06:10;101703.91;;;16.89;54.29
73240;BME280;61452;40.054;4.110;2023-04-03T06:11:14;101704.94;;;16.86;54.38
73240;BME280;61452;40.054;4.110;2023-04-03T06:16:17;101710.44;;;16.83;54.37
73240;BME280;61452;40.054;4.110;2023-04-03T06:21:19;101712.72;;;16.89;53.82
73240;BME280;61452;40.054;4.110;2023-04-03T06:26:22;101719.53;;;16.93;54.40
73240;BME280;61452;40.054;4.110;2023-04-03T06:31:24;101726.63;;;16.93;54.51
73240;BME280;61452;40.054;4.110;2023-04-03T06:36:26;101739.38;;;16.86;55.82
73240;BME280;61452;40.054;4.110;2023-04-03T06:41:29;101732.50;;;16.84;55.53
73240;BME280;61452;40.054;4.110;2023-04-03T06:46:31;101749.25;;;16.84;55.29
73240;BME280;61452;40.054;4.110;2023-04-03T06:51:34;101742.16;;;16.85;56.44
73240;BME280;61452;40.054;4.110;2023-04-03T06:56:37;101743.81;;;16.86;55.91
73240;BME280;61452;40.054;4.110;2023-04-03T07:01:39;101752.53;;;16.88;55.07
73240;BME280;61452;40.054;4.110;2023-04-03T07:06:42;101750.56;;;16.91;55.09
73240;BME280;61452;40.054;4.110;2023-04-03T07:11:44;101764.78;;;16.90;55.57
73240;BME280;61452;40.054;4.110;2023-04-03T07:16:46;101759.72;;;16.86;55.76
73240;BME280;61452;40.054;4.110;2023-04-03T07:21:49;101759.06;;;16.82;55.49
73240;BME280;61452;40.054;4.110;2023-04-03T07:26:54;101753.69;;;16.84;55.32
73240;BME280;61452;40.054;4.110;2023-04-03T07:31:56;101768.53;;;16.86;54.94
73240;BME280;61452;40.054;4.110;2023-04-03T07:36:59;101765.81;;;16.88;55.18
73240;BME280;61452;40.054;4.110;2023-04-03T07:42:02;101768.72;;;16.83;55.07
73240;BME280;61452;40.054;4.110;2023-04-03T07:47:04;101775.91;;;16.81;55.11
73240;BME280;61452;40.054;4.110;2023-04-03T07:52:07;101762.56;;;16.83;54.21
73240;BME280;61452;40.054;4.110;2023-04-03T07:57:10;101774.88;;;16.84;54.59
73240;BME280;61452;40.054;4.110;2023-04-03T08:02:13;101760.78;;;16.83;54.91
73240;BME280;61452;40.054;4.110;2023-04-03T08:07:15;101764.53;;;16.79;55.24
73240;BME280;61452;40.054;4.110;2023-04-03T08:12:17;101759.44;;;16.76;55.55
73240;BME280;61452;40.054;4.110;2023-04-03T08:17:20;101770.03;;;16.76;55.51
73240;BME280;61452;40.054;4.110;2023-04-03T08:22:22;101764.53;;;16.79;55.24
73240;BME280;61452;40.054;4.110;2023-04-03T08:27:24;101770.53;;;16.83;55.87
73240;BME280;61452;40.054;4.110;2023-04-03T08:32:29;101779.50;;;16.80;55.91
73240;BME280;61452;40.054;4.110;2023-04-03T08:37:35;101799.25;;;16.75;56.29
73240;BME280;61452;40.054;4.110;2023-04-03T08:48:08;101791.22;;;16.76;55.55
73240;BME280;61452;40.054;4.110;2023-04-03T08:53:16;101797.19;;;16.80;55.17
73240;BME280;61452;40.054;4.110;2023-04-03T08:58:27;101806.94;;;16.79;55.79
73240;BME280;61452;40.054;4.110;2023-04-03T09:03:34;101814.22;;;16.76;56.16
73240;BME280;61452;40.054;4.110;2023-04-03T09:08:45;101806.34;;;16.74;55.96
73240;BME280;61452;40.054;4.110;2023-04-03T09:14:02;101808.13;;;16.74;55.93
73240;BME280;61452;40.054;4.110;2023-04-03T09:24:27;101792.34;;;16.72;56.40
73240;BME280;61452;40.054;4.110;2023-04-03T09:29:30;101799.34;;;16.73;56.32
73240;BME280;61452;40.054;4.110;2023-04-03T09:34:36;101790.16;;;16.79;55.85
73240;BME280;61452;40.054;4.110;2023-04-03T09:39:53;101796.25;;;16.81;55.86
73240;BME280;61452;40.054;4.110;2023-04-03T09:45:04;101798.13;;;16.79;56.75
73240;BME280;61452;40.054;4.110;2023-04-03T09:55:20;101795.81;;;16.73;55.88
73240;BME280;61452;40.054;4.110;2023-04-03T10:00:35;101788.56;;;16.76;55.25
73240;BME280;61452;40.054;4.110;2023-04-03T10:05:40;101785.66;;;16.81;55.72
73240;BME280;61452;40.054;4.110;2023-04-03T10:10:48;101770.59;;;16.81;56.14
73240;BME280;61452;40.054;4.110;2023-04-03T10:15:55;101774.47;;;16.76;56.38
73240;BME280;61452;40.054;4.110;2023-04-03T10:21:19;101768.50;;;16.72;56.07
73240;BME280;61452;40.054;4.110;2023-04-03T10:26:39;101765.75;;;16.74;56.15
73240;BME280;61452;40.054;4.110;2023-04-03T10:31:46;101749.00;;;16.73;56.13
73240;BME280;61452;40.054;4.110;2023-04-03T10:42:45;101739.94;;;16.77;57.10
73240;BME280;61452;40.054;4.110;2023-04-03T10:53:06;101735.66;;;16.75;56.09
73240;BME280;61452;40.054;4.110;2023-04-03T10:58:41;101724.22;;;16.74;56.75
73240;BME280;61452;40.054;4.110;2023-04-03T11:03:48;101732.66;;;16.81;56.46
73240;BME280;61452;40.054;4.110;2023-04-03T11:08:57;101718.56;;;16.80;56.46
73240;BME280;61452;40.054;4.110;2023-04-03T11:14:25;101716.97;;;16.78;56.55
73240;BME280;61452;40.054;4.110;2023-04-03T11:19:35;101712.50;;;16.78;56.04
73240;BME280;61452;40.054;4.110;2023-04-03T11:24:41;101705.50;;;16.77;55.86
73240;BME280;61452;40.054;4.110;2023-04-03T11:29:45;101703.59;;;16.79;56.47
73240;BME280;61452;40.054;4.110;2023-04-03T11:34:53;101700.94;;;16.79;56.51
73240;BME280;61452;40.054;4.110;2023-04-03T11:40:06;101697.34;;;16.80;56.86
73240;BME280;61452;40.054;4.110;2023-04-03T12:00:57;101682.50;;;16.78;57.29
73240;BME280;61452;40.054;4.110;2023-04-03T12:11:24;101677.00;;;16.81;56.43
73240;BME280;61452;40.054;4.110;2023-04-03T12:26:43;101653.16;;;16.81;55.92
73240;BME280;61452;40.054;4.110;2023-04-03T12:37:21;101646.84;;;16.83;55.67
73240;BME280;61452;40.054;4.110;2023-04-03T12:48:01;101633.59;;;16.83;56.07
73240;BME280;61452;40.054;4.110;2023-04-03T12:53:18;101622.06;;;16.84;55.68
73240;BME280;61452;40.054;4.110;2023-04-03T13:03:26;101611.25;;;16.87;55.59
73240;BME280;61452;40.054;4.110;2023-04-03T13:08:29;101605.94;;;16.87;55.84
73240;BME280;61452;40.054;4.110;2023-04-03T13:13:32;101605.09;;;16.87;56.04
73240;BME280;61452;40.054;4.110;2023-04-03T13:18:36;101600.00;;;16.84;56.45
73240;BME280;61452;40.054;4.110;2023-04-03T13:23:38;101599.88;;;16.85;56.30
73240;BME280;61452;40.054;4.110;2023-04-03T13:28:42;101599.72;;;16.88;55.92
73240;BME280;61452;40.054;4.110;2023-04-03T13:34:18;101594.31;;;16.90;55.80
73240;BME280;61452;40.054;4.110;2023-04-03T13:39:24;101589.88;;;16.90;55.37
73240;BME280;61452;40.054;4.110;2023-04-03T13:44:33;101589.03;;;16.90;55.68
73240;BME280;61452;40.054;4.110;2023-04-03T13:49:38;101573.84;;;16.92;55.24
73240;BME280;61452;40.054;4.110;2023-04-03T13:54:46;101573.00;;;16.91;55.33
73240;BME280;61452;40.054;4.110;2023-04-03T13:59:49;101554.44;;;16.91;55.77
73240;BME280;61452;40.054;4.110;2023-04-03T14:04:58;101561.47;;;16.92;55.29
73240;BME280;61452;40.054;4.110;2023-04-03T14:10:03;101555.31;;;16.92;55.26
73240;BME280;61452;40.054;4.110;2023-04-03T14:15:23;101570.56;;;16.88;56.00
73240;BME280;61452;40.054;4.110;2023-04-03T14:20:27;101571.13;;;16.93;56.21
73240;BME280;61452;40.054;4.110;2023-04-03T14:25:29;101562.22;;;16.94;55.75
73240;BME280;61452;40.054;4.110;2023-04-03T14:30:34;101568.56;;;16.92;55.85
73240;BME280;61452;40.054;4.110;2023-04-03T14:35:37;101556.94;;;16.94;56.36
73240;BME280;61452;40.054;4.110;2023-04-03T14:40:39;101564.66;;;16.97;56.22
73240;BME280;61452;40.054;4.110;2023-04-03T14:45:42;101563.00;;;16.96;56.22
73240;BME280;61452;40.054;4.110;2023-04-03T14:50:45;101551.72;;;16.93;56.00
73240;BME280;61452;40.054;4.110;2023-04-03T14:56:14;101536.66;;;16.93;55.70
73240;BME280;61452;40.054;4.110;2023-04-03T15:01:18;101538.06;;;16.99;55.70
73240;BME280;61452;40.054;4.110;2023-04-03T15:06:20;101538.84;;;17.01;55.58
73240;BME280;61452;40.054;4.110;2023-04-03T15:11:24;101538.00;;;17.01;55.60
73240;BME280;61452;40.054;4.110;2023-04-03T15:16:27;101529.41;;;16.97;55.67
73240;BME280;61452;40.054;4.110;2023-04-03T15:21:30;101532.13;;;16.95;55.25
73240;BME280;61452;40.054;4.110;2023-04-03T15:26:32;101531.19;;;16.96;55.29
73240;BME280;61452;40.054;4.110;2023-04-03T15:31:34;101532.13;;;16.95;55.53
73240;BME280;61452;40.054;4.110;2023-04-03T15:36:37;101524.09;;;16.97;55.10
73240;BME280;61452;40.054;4.110;2023-04-03T15:41:39;101521.16;;;17.02;54.97
73240;BME280;61452;40.054;4.110;2023-04-03T15:46:41;101517.53;;;17.03;55.44
73240;BME280;61452;40.054;4.110;2023-04-03T15:51:44;101513.09;;;17.03;54.84
73240;BME280;61452;40.054;4.110;2023-04-03T15:56:46;101508.06;;;16.98;55.44
73240;BME280;61452;40.054;4.110;2023-04-03T16:01:49;101504.47;;;16.99;55.38
73240;BME280;61452;40.054;4.110;2023-04-03T16:06:53;101502.38;;;17.05;55.18
73240;BME280;61452;40.054;4.110;2023-04-03T16:11:55;101505.88;;;17.05;55.09
73240;BME280;61452;40.054;4.110;2023-04-03T16:16:58;101497.06;;;17.05;54.79
73240;BME280;61452;40.054;4.110;2023-04-03T16:22:04;101514.91;;;17.03;55.24
73240;BME280;61452;40.054;4.110;2023-04-03T16:27:06;101506.09;;;17.02;55.24
73240;BME280;61452;40.054;4.110;2023-04-03T16:32:09;101513.75;;;17.07;55.18
73240;BME280;61452;40.054;4.110;2023-04-03T16:37:11;101508.63;;;17.04;55.20
73240;BME280;61452;40.054;4.110;2023-04-03T16:42:13;101500.66;;;17.04;55.13
73240;BME280;61452;40.054;4.110;2023-04-03T16:47:16;101501.66;;;17.03;55.81
73240;BME280;61452;40.054;4.110;2023-04-03T16:52:21;101484.88;;;17.02;55.33
73240;BME280;61452;40.054;4.110;2023-04-03T16:57:23;101483.66;;;17.08;55.19
73240;BME280;61452;40.054;4.110;2023-04-03T17:02:26;101481.72;;;17.10;55.19
73240;BME280;61452;40.054;4.110;2023-04-03T17:07:29;101480.91;;;17.09;55.33
73240;BME280;61452;40.054;4.110;2023-04-03T17:12:31;101477.50;;;17.07;55.51
73240;BME280;61452;40.054;4.110;2023-04-03T17:17:34;101485.44;;;17.07;55.56
73240;BME280;61452;40.054;4.110;2023-04-03T17:22:36;101475.88;;;17.05;55.18
73240;BME280;61452;40.054;4.110;2023-04-03T17:27:38;101481.84;;;17.08;55.57
73240;BME280;61452;40.054;4.110;2023-04-03T17:32:41;101472.94;;;17.09;55.48
73240;BME280;61452;40.054;4.110;2023-04-03T17:37:43;101476.81;;;17.04;56.15
73240;BME280;61452;40.054;4.110;2023-04-03T17:42:45;101467.06;;;17.04;56.05
73240;BME280;61452;40.054;4.110;2023-04-03T17:47:47;101467.75;;;17.08;55.60
73240;BME280;61452;40.054;4.110;2023-04-03T17:52:52;101475.59;;;17.09;55.68
73240;BME280;61452;40.054;4.110;2023-04-03T17:57:54;101468.59;;;17.08;55.60
73240;BME280;61452;40.054;4.110;2023-04-03T18:02:57;101473.13;;;17.06;56.08
73240;BME280;61452;40.054;4.110;2023-04-03T18:07:59;101472.19;;;17.07;55.90
73240;BME280;61452;40.054;4.110;2023-04-03T18:13:05;101480.03;;;17.09;55.87
73240;BME280;61452;40.054;4.110;2023-04-03T18:18:08;101466.88;;;17.07;56.06
73240;BME280;61452;40.054;4.110;2023-04-03T18:23:11;101477.50;;;17.07;55.76
73240;BME280;61452;40.054;4.110;2023-04-03T18:28:13;101475.03;;;17.04;55.50
73240;BME280;61452;40.054;4.110;2023-04-03T18:33:15;101486.47;;;17.05;56.15
73240;BME280;61452;40.054;4.110;2023-04-03T18:38:17;101480.22;;;17.06;56.35
73240;BME280;61452;40.054;4.110;2023-04-03T18:43:20;101479.28;;;17.07;56.46
73240;BME280;61452;40.054;4.110;2023-04-03T18:48:22;101473.03;;;17.08;56.17
73240;BME280;61452;40.054;4.110;2023-04-03T18:53:25;101465.19;;;17.06;56.35
73240;BME280;61452;40.054;4.110;2023-04-03T18:58:27;101460.72;;;17.07;56.25
73240;BME280;61452;40.054;4.110;2023-04-03T19:03:30;101466.13;;;17.05;56.36
73240;BME280;61452;40.054;4.110;2023-04-03T19:08:33;101467.91;;;17.05;56.54
73240;BME280;61452;40.054;4.110;2023-04-03T19:13:36;101469.00;;;17.02;57.23
73240;BME280;61452;40.054;4.110;2023-04-03T19:18:59;101469.72;;;17.04;57.47
73240;BME280;61452;40.054;4.110;2023-04-03T19:24:01;101462.94;;;17.00;56.97
73240;BME280;61452;40.054;4.110;2023-04-03T19:29:03;101480.13;;;17.07;56.86
73240;BME280;61452;40.054;4.110;2023-04-03T19:34:06;101490.91;;;17.04;57.62
73240;BME280;61452;40.054;4.110;2023-04-03T19:39:08;101495.38;;;17.04;57.64
73240;BME280;61452;40.054;4.110;2023-04-03T19:44:11;101496.22;;;17.04;58.07
73240;BME280;61452;40.054;4.110;2023-04-03T19:49:13;101494.53;;;17.03;57.38
73240;BME280;61452;40.054;4.110;2023-04-03T19:54:16;101505.97;;;17.04;57.19
73240;BME280;61452;40.054;4.110;2023-04-03T19:59:18;101508.63;;;17.04;57.24
73240;BME280;61452;40.054;4.110;2023-04-03T20:04:20;101508.75;;;17.02;57.41
73240;BME280;61452;40.054;4.110;2023-04-03T20:09:23;101512.44;;;16.99;57.80
73240;BME280;61452;40.054;4.110;2023-04-03T20:14:25;101505.97;;;17.04;57.44
73240;BME280;61452;40.054;4.110;2023-04-03T20:19:28;101490.06;;;17.04;56.93
73240;BME280;61452;40.054;4.110;2023-04-03T20:24:31;101483.94;;;17.03;56.51
73240;BME280;61452;40.054;4.110;2023-04-03T20:29:35;101476.00;;;17.03;56.64
73240;BME280;61452;40.054;4.110;2023-04-03T20:34:37;101479.47;;;17.04;56.67
73240;BME280;61452;40.054;4.110;2023-04-03T20:39:40;101486.69;;;17.02;56.51
73240;BME280;61452;40.054;4.110;2023-04-03T20:44:42;101482.41;;;16.99;56.47
73240;BME280;61452;40.054;4.110;2023-04-03T20:49:46;101486.78;;;17.00;56.92
73240;BME280;61452;40.054;4.110;2023-04-03T20:54:50;101493.78;;;17.01;56.41
73240;BME280;61452;40.054;4.110;2023-04-03T20:59:53;101491.91;;;17.03;55.96
73240;BME280;61452;40.054;4.110;2023-04-03T21:04:55;101492.94;;;17.01;56.04
73240;BME280;61452;40.054;4.110;2023-04-03T21:21:01;101493.13;;;16.97;56.85
73240;BME280;61452;40.054;4.110;2023-04-03T21:26:04;101497.47;;;16.98;56.72
73240;BME280;61452;40.054;4.110;2023-04-03T21:31:06;101487.72;;;16.99;56.90
73240;BME280;61452;40.054;4.110;2023-04-03T21:36:08;101491.22;;;16.99;57.14
73240;BME280;61452;40.054;4.110;2023-04-03T21:41:11;101497.47;;;16.98;57.33
73240;BME280;61452;40.054;4.110;2023-04-03T21:46:13;101503.63;;;16.99;56.97
73240;BME280;61452;40.054;4.110;2023-04-03T21:51:15;101492.16;;;16.98;56.91
73240;BME280;61452;40.054;4.110;2023-04-03T21:56:20;101479.69;;;17.01;57.02
73240;BME280;61452;40.054;4.110;2023-04-03T22:01:25;101470.97;;;16.98;57.18
73240;BME280;61452;40.054;4.110;2023-04-03T22:06:28;101475.31;;;16.99;57.13
73240;BME280;61452;40.054;4.110;2023-04-03T22:11:30;101478.81;;;17.00;57.02
73240;BME280;61452;40.054;4.110;2023-04-03T22:16:33;101483.38;;;16.98;56.63
73240;BME280;61452;40.054;4.110;2023-04-03T22:21:35;101477.03;;;17.01;56.57
73240;BME280;61452;40.054;4.110;2023-04-03T22:26:37;101466.91;;;16.93;56.74
73240;BME280;61452;40.054;4.110;2023-04-03T22:31:40;101470.13;;;16.98;56.50
73240;BME280;61452;40.054;4.110;2023-04-03T22:36:43;101479.03;;;16.97;56.63
73240;BME280;61452;40.054;4.110;2023-04-03T22:41:45;101484.22;;;16.98;56.65
73240;BME280;61452;40.054;4.110;2023-04-03T22:46:47;101479.84;;;16.97;56.61
73240;BME280;61452;40.054;4.110;2023-04-03T22:51:49;101466.72;;;16.96;56.79
73240;BME280;61452;40.054;4.110;2023-04-03T22:56:52;101467.47;;;16.98;56.72
73240;BME280;61452;40.054;4.110;2023-04-03T23:01:54;101471.81;;;16.99;56.27
73240;BME280;61452;40.054;4.110;2023-04-03T23:06:56;101471.91;;;16.97;55.41
73240;BME280;61452;40.054;4.110;2023-04-03T23:12:00;101470.88;;;17.00;55.67
73240;BME280;61452;40.054;4.110;2023-04-03T23:17:03;101470.88;;;17.00;56.24
73240;BME280;61452;40.054;4.110;2023-04-03T23:22:06;101463.88;;;16.99;56.84
73240;BME280;61452;40.054;4.110;2023-04-03T23:27:09;101465.56;;;17.00;56.99
73240;BME280;61452;40.054;4.110;2023-04-03T23:32:11;101461.44;;;16.96;57.49
73240;BME280;61452;40.054;4.110;2023-04-03T23:37:15;101460.50;;;16.97;57.23
73240;BME280;61452;40.054;4.110;2023-04-03T23:42:17;101456.88;;;16.98;57.03
73240;BME280;61452;40.054;4.110;2023-04-03T23:47:19;101452.53;;;16.97;56.91
73240;BME280;61452;40.054;4.110;2023-04-03T23:52:21;101451.56;;;16.98;58.13
73240;BME280;61452;40.054;4.110;2023-04-03T23:57:24;101443.91;;;16.93;58.58
